sensor_id;sensor_type;location;lat;lon;timestamp;P1;durP1;ratioP1;P2;durP2;ratioP2
56581;SDS011;42463;52.214;21.238;2023-02-01T00:00:57;10.30;;;7.10;;
56581;SDS011;42463;52.214;21.238;2023-02-01T00:03:22;8.70;;;5.30;;
56581;SDS011;42463;52.214;21.238;2023-02-01T00:06:08;9.60;;;6.40;;
56581;SDS011;42463;52.214;21.238;2023-02-01T00:08:53;7.90;;;5.30;;
56581;SDS011;42463;52.214;21.238;2023-02-01T00:11:19;9.60;;;5.40;;
56581;SDS011;42463;52.214;21.238;2023-02-01T00:13:44;8.60;;;5.20;;
56581;SDS011;42463;52.214;21.238;2023-02-01T00:16:11;6.70;;;4.30;;
56581;SDS011;42463;52.214;21.238;2023-02-01T00:18:39;9.40;;;5.80;;
56581;SDS011;42463;52.214;21.238;2023-02-01T00:21:04;7.30;;;4.80;;
56581;SDS011;42463;52.214;21.238;2023-02-01T00:23:32;8.40;;;4.80;;
56581;SDS011;42463;52.214;21.238;2023-02-01T00:26:04;6.60;;;4.70;;
56581;SDS011;42463;52.214;21.238;2023-02-01T00:28:39;8.50;;;4.90;;
56581;SDS011;42463;52.214;21.238;2023-02-01T00:31:04;8.90;;;5.60;;
56581;SDS011;42463;52.214;21.238;2023-02-01T00:33:38;8.10;;;5.20;;
56581;SDS011;42463;52.214;21.238;2023-02-01T00:36:03;8.20;;;5.00;;
56581;SDS011;42463;52.214;21.238;2023-02-01T00:38:33;7.20;;;4.10;;
56581;SDS011;42463;52.214;21.238;2023-02-01T00:41:02;7.40;;;4.20;;
56581;SDS011;42463;52.214;21.238;2023-02-01T00:43:28;8.80;;;5.30;;
56581;SDS011;42463;52.214;21.238;2023-02-01T00:46:15;7.20;;;4.90;;
56581;SDS011;42463;52.214;21.238;2023-02-01T00:49:05;8.40;;;4.90;;
56581;SDS011;42463;52.214;21.238;2023-02-01T00:51:39;8.80;;;5.10;;
56581;SDS011;42463;52.214;21.238;2023-02-01T00:56:57;7.00;;;4.10;;
56581;SDS011;42463;52.214;21.238;2023-02-01T00:59:42;6.80;;;4.20;;
56581;SDS011;42463;52.214;21.238;2023-02-01T01:02:20;3.30;;;2.50;;
56581;SDS011;42463;52.214;21.238;2023-02-01T01:04:59;4.90;;;3.00;;
56581;SDS011;42463;52.214;21.238;2023-02-01T01:10:17;7.90;;;2.80;;
56581;SDS011;42463;52.214;21.238;2023-02-01T01:12:48;5.90;;;3.10;;
56581;SDS011;42463;52.214;21.238;2023-02-01T01:15:36;3.40;;;2.40;;
56581;SDS011;42463;52.214;21.238;2023-02-01T01:18:02;3.60;;;1.70;;
56581;SDS011;42463;52.214;21.238;2023-02-01T01:20:27;3.30;;;2.00;;
56581;SDS011;42463;52.214;21.238;2023-02-01T01:22:55;5.60;;;2.30;;
56581;SDS011;42463;52.214;21.238;2023-02-01T01:25:22;3.00;;;2.10;;
56581;SDS011;42463;52.214;21.238;2023-02-01T01:27:57;3.60;;;1.90;;
56581;SDS011;42463;52.214;21.238;2023-02-01T01:30:25;3.50;;;2.10;;
56581;SDS011;42463;52.214;21.238;2023-02-01T01:32:50;3.50;;;2.00;;
56581;SDS011;42463;52.214;21.238;2023-02-01T01:35:16;5.80;;;2.20;;
56581;SDS011;42463;52.214;21.238;2023-02-01T01:37:44;3.80;;;1.60;;
56581;SDS011;42463;52.214;21.238;2023-02-01T01:40:12;2.80;;;1.60;;
56581;SDS011;42463;52.214;21.238;2023-02-01T01:42:57;3.90;;;2.00;;
56581;SDS011;42463;52.214;21.238;2023-02-01T01:45:26;3.90;;;1.40;;
56581;SDS011;42463;52.214;21.238;2023-02-01T01:48:07;4.60;;;1.50;;
56581;SDS011;42463;52.214;21.238;2023-02-01T01:50:57;3.30;;;1.30;;
56581;SDS011;42463;52.214;21.238;2023-02-01T01:53:40;2.20;;;1.30;;
56581;SDS011;42463;52.214;21.238;2023-02-01T01:56:32;2.10;;;1.10;;
56581;SDS011;42463;52.214;21.238;2023-02-01T01:58:59;3.20;;;1.40;;
56581;SDS011;42463;52.214;21.238;2023-02-01T02:01:43;4.30;;;1.20;;
56581;SDS011;42463;52.214;21.238;2023-02-01T02:04:28;3.50;;;1.10;;
56581;SDS011;42463;52.214;21.238;2023-02-01T02:07:16;3.70;;;1.10;;
56581;SDS011;42463;52.214;21.238;2023-02-01T02:10:05;7.60;;;1.40;;
56581;SDS011;42463;52.214;21.238;2023-02-01T02:12:36;4.60;;;1.40;;
56581;SDS011;42463;52.214;21.238;2023-02-01T02:15:23;3.20;;;1.40;;
56581;SDS011;42463;52.214;21.238;2023-02-01T02:17:50;4.10;;;1.30;;
56581;SDS011;42463;52.214;21.238;2023-02-01T02:24:27;3.90;;;1.40;;
56581;SDS011;42463;52.214;21.238;2023-02-01T02:27:19;5.80;;;1.40;;
56581;SDS011;42463;52.214;21.238;2023-02-01T02:30:01;6.30;;;1.60;;
56581;SDS011;42463;52.214;21.238;2023-02-01T02:32:51;6.50;;;1.60;;
56581;SDS011;42463;52.214;21.238;2023-02-01T02:35:50;4.50;;;1.40;;
56581;SDS011;42463;52.214;21.238;2023-02-01T02:38:29;8.10;;;2.00;;
56581;SDS011;42463;52.214;21.238;2023-02-01T02:41:00;5.40;;;1.60;;
56581;SDS011;42463;52.214;21.238;2023-02-01T02:43:45;12.40;;;2.10;;
56581;SDS011;42463;52.214;21.238;2023-02-01T02:46:33;5.10;;;1.60;;
56581;SDS011;42463;52.214;21.238;2023-02-01T02:49:22;3.60;;;1.80;;
56581;SDS011;42463;52.214;21.238;2023-02-01T02:51:54;4.80;;;1.80;;
56581;SDS011;42463;52.214;21.238;2023-02-01T02:54:43;6.10;;;1.70;;
56581;SDS011;42463;52.214;21.238;2023-02-01T02:57:17;6.20;;;2.10;;
56581;SDS011;42463;52.214;21.238;2023-02-01T03:00:04;8.00;;;2.50;;
56581;SDS011;42463;52.214;21.238;2023-02-01T03:03:00;4.80;;;1.90;;
56581;SDS011;42463;52.214;21.238;2023-02-01T03:05:45;6.60;;;2.40;;
56581;SDS011;42463;52.214;21.238;2023-02-01T03:08:20;6.60;;;2.00;;
56581;SDS011;42463;52.214;21.238;2023-02-01T03:10:49;6.20;;;1.80;;
56581;SDS011;42463;52.214;21.238;2023-02-01T03:13:22;6.10;;;2.00;;
56581;SDS011;42463;52.214;21.238;2023-02-01T03:15:56;5.60;;;1.90;;
56581;SDS011;42463;52.214;21.238;2023-02-01T03:18:26;9.00;;;2.50;;
56581;SDS011;42463;52.214;21.238;2023-02-01T03:21:06;4.60;;;1.60;;
56581;SDS011;42463;52.214;21.238;2023-02-01T03:23:39;7.70;;;1.50;;
56581;SDS011;42463;52.214;21.238;2023-02-01T03:26:07;9.10;;;2.20;;
56581;SDS011;42463;52.214;21.238;2023-02-01T03:28:38;5.30;;;1.40;;
56581;SDS011;42463;52.214;21.238;2023-02-01T03:31:21;10.40;;;2.30;;
56581;SDS011;42463;52.214;21.238;2023-02-01T03:33:48;7.20;;;1.90;;
56581;SDS011;42463;52.214;21.238;2023-02-01T03:36:20;9.80;;;2.10;;
56581;SDS011;42463;52.214;21.238;2023-02-01T03:38:57;6.90;;;2.10;;
56581;SDS011;42463;52.214;21.238;2023-02-01T03:41:28;8.50;;;2.40;;
56581;SDS011;42463;52.214;21.238;2023-02-01T03:44:06;5.90;;;1.30;;
56581;SDS011;42463;52.214;21.238;2023-02-01T03:46:37;6.50;;;1.90;;
56581;SDS011;42463;52.214;21.238;2023-02-01T03:49:09;5.80;;;1.70;;
56581;SDS011;42463;52.214;21.238;2023-02-01T03:51:39;9.90;;;2.70;;
56581;SDS011;42463;52.214;21.238;2023-02-01T03:54:05;6.50;;;2.20;;
56581;SDS011;42463;52.214;21.238;2023-02-01T03:56:34;7.60;;;2.00;;
56581;SDS011;42463;52.214;21.238;2023-02-01T03:59:03;7.70;;;2.00;;
56581;SDS011;42463;52.214;21.238;2023-02-01T04:01:31;10.30;;;2.40;;
56581;SDS011;42463;52.214;21.238;2023-02-01T04:03:59;2.60;;;1.80;;
56581;SDS011;42463;52.214;21.238;2023-02-01T04:06:25;6.30;;;1.80;;
56581;SDS011;42463;52.214;21.238;2023-02-01T04:08:52;8.80;;;2.00;;
56581;SDS011;42463;52.214;21.238;2023-02-01T04:11:17;5.30;;;1.60;;
56581;SDS011;42463;52.214;21.238;2023-02-01T04:13:42;6.60;;;2.20;;
56581;SDS011;42463;52.214;21.238;2023-02-01T04:16:27;10.70;;;2.20;;
56581;SDS011;42463;52.214;21.238;2023-02-01T04:18:52;13.00;;;3.00;;
56581;SDS011;42463;52.214;21.238;2023-02-01T04:21:37;6.30;;;2.10;;
56581;SDS011;42463;52.214;21.238;2023-02-01T04:24:02;4.80;;;2.40;;
56581;SDS011;42463;52.214;21.238;2023-02-01T04:26:39;6.50;;;2.10;;
56581;SDS011;42463;52.214;21.238;2023-02-01T04:29:26;4.90;;;1.80;;
56581;SDS011;42463;52.214;21.238;2023-02-01T04:31:52;4.20;;;2.00;;
56581;SDS011;42463;52.214;21.238;2023-02-01T04:34:18;15.00;;;2.90;;
56581;SDS011;42463;52.214;21.238;2023-02-01T04:36:55;4.90;;;1.90;;
56581;SDS011;42463;52.214;21.238;2023-02-01T04:39:40;4.40;;;2.10;;
56581;SDS011;42463;52.214;21.238;2023-02-01T04:42:05;7.10;;;2.00;;
56581;SDS011;42463;52.214;21.238;2023-02-01T04:47:33;7.10;;;2.00;;
56581;SDS011;42463;52.214;21.238;2023-02-01T04:49:57;9.30;;;2.80;;
56581;SDS011;42463;52.214;21.238;2023-02-01T04:52:22;7.60;;;1.80;;
56581;SDS011;42463;52.214;21.238;2023-02-01T04:55:08;6.60;;;1.80;;
56581;SDS011;42463;52.214;21.238;2023-02-01T04:57:48;6.80;;;2.50;;
56581;SDS011;42463;52.214;21.238;2023-02-01T05:00:31;6.40;;;2.10;;
56581;SDS011;42463;52.214;21.238;2023-02-01T05:03:16;6.90;;;1.80;;
56581;SDS011;42463;52.214;21.238;2023-02-01T05:05:55;4.50;;;1.60;;
56581;SDS011;42463;52.214;21.238;2023-02-01T05:08:21;7.30;;;2.20;;
56581;SDS011;42463;52.214;21.238;2023-02-01T05:10:59;5.20;;;1.90;;
56581;SDS011;42463;52.214;21.238;2023-02-01T05:13:35;8.80;;;2.30;;
56581;SDS011;42463;52.214;21.238;2023-02-01T05:16:12;10.00;;;1.50;;
56581;SDS011;42463;52.214;21.238;2023-02-01T05:18:57;7.30;;;1.90;;
56581;SDS011;42463;52.214;21.238;2023-02-01T05:21:35;10.50;;;1.80;;
56581;SDS011;42463;52.214;21.238;2023-02-01T05:24:21;5.70;;;1.70;;
56581;SDS011;42463;52.214;21.238;2023-02-01T05:26:55;9.10;;;1.90;;
56581;SDS011;42463;52.214;21.238;2023-02-01T05:29:25;10.10;;;1.80;;
56581;SDS011;42463;52.214;21.238;2023-02-01T05:34:42;8.40;;;2.20;;
56581;SDS011;42463;52.214;21.238;2023-02-01T05:37:21;10.80;;;1.50;;
56581;SDS011;42463;52.214;21.238;2023-02-01T05:40:00;10.00;;;2.00;;
56581;SDS011;42463;52.214;21.238;2023-02-01T05:42:25;11.70;;;1.90;;
56581;SDS011;42463;52.214;21.238;2023-02-01T05:45:05;10.00;;;2.20;;
56581;SDS011;42463;52.214;21.238;2023-02-01T05:47:52;9.90;;;2.40;;
56581;SDS011;42463;52.214;21.238;2023-02-01T05:50:37;10.00;;;1.90;;
56581;SDS011;42463;52.214;21.238;2023-02-01T05:53:08;11.80;;;2.40;;
56581;SDS011;42463;52.214;21.238;2023-02-01T05:58:27;11.00;;;1.60;;
56581;SDS011;42463;52.214;21.238;2023-02-01T06:01:12;9.30;;;1.70;;
56581;SDS011;42463;52.214;21.238;2023-02-01T06:03:48;11.00;;;1.90;;
56581;SDS011;42463;52.214;21.238;2023-02-01T06:06:24;7.20;;;2.10;;
56581;SDS011;42463;52.214;21.238;2023-02-01T06:09:00;8.10;;;1.90;;
56581;SDS011;42463;52.214;21.238;2023-02-01T06:11:33;6.50;;;1.80;;
56581;SDS011;42463;52.214;21.238;2023-02-01T06:14:09;10.30;;;2.30;;
56581;SDS011;42463;52.214;21.238;2023-02-01T06:16:55;20.30;;;2.30;;
56581;SDS011;42463;52.214;21.238;2023-02-01T06:19:40;14.10;;;2.40;;
56581;SDS011;42463;52.214;21.238;2023-02-01T06:22:19;8.90;;;2.60;;
56581;SDS011;42463;52.214;21.238;2023-02-01T06:24:45;6.10;;;2.00;;
56581;SDS011;42463;52.214;21.238;2023-02-01T06:27:32;9.40;;;2.30;;
56581;SDS011;42463;52.214;21.238;2023-02-01T06:30:18;8.30;;;2.40;;
56581;SDS011;42463;52.214;21.238;2023-02-01T06:32:55;7.60;;;1.90;;
56581;SDS011;42463;52.214;21.238;2023-02-01T06:35:40;10.30;;;2.50;;
56581;SDS011;42463;52.214;21.238;2023-02-01T06:38:14;6.60;;;2.10;;
56581;SDS011;42463;52.214;21.238;2023-02-01T06:40:53;10.80;;;2.00;;
56581;SDS011;42463;52.214;21.238;2023-02-01T06:43:33;7.50;;;2.30;;
56581;SDS011;42463;52.214;21.238;2023-02-01T06:46:01;10.10;;;2.30;;
56581;SDS011;42463;52.214;21.238;2023-02-01T06:48:28;10.50;;;2.40;;
56581;SDS011;42463;52.214;21.238;2023-02-01T06:51:16;5.70;;;2.20;;
56581;SDS011;42463;52.214;21.238;2023-02-01T06:53:56;11.70;;;2.00;;
56581;SDS011;42463;52.214;21.238;2023-02-01T06:56:41;10.80;;;3.00;;
56581;SDS011;42463;52.214;21.238;2023-02-01T06:59:15;8.50;;;2.20;;
56581;SDS011;42463;52.214;21.238;2023-02-01T07:01:49;9.20;;;2.40;;
56581;SDS011;42463;52.214;21.238;2023-02-01T07:04:28;11.30;;;2.10;;
56581;SDS011;42463;52.214;21.238;2023-02-01T07:06:56;8.40;;;2.20;;
56581;SDS011;42463;52.214;21.238;2023-02-01T07:09:26;6.10;;;1.80;;
56581;SDS011;42463;52.214;21.238;2023-02-01T07:11:53;14.30;;;3.00;;
56581;SDS011;42463;52.214;21.238;2023-02-01T07:14:33;7.30;;;1.90;;
56581;SDS011;42463;52.214;21.238;2023-02-01T07:17:07;9.20;;;1.90;;
56581;SDS011;42463;52.214;21.238;2023-02-01T07:22:35;14.00;;;2.80;;
56581;SDS011;42463;52.214;21.238;2023-02-01T07:25:05;5.40;;;2.00;;
56581;SDS011;42463;52.214;21.238;2023-02-01T07:27:34;8.30;;;2.30;;
56581;SDS011;42463;52.214;21.238;2023-02-01T07:29:59;8.30;;;1.70;;
56581;SDS011;42463;52.214;21.238;2023-02-01T07:32:24;7.50;;;2.20;;
56581;SDS011;42463;52.214;21.238;2023-02-01T07:34:49;7.10;;;1.80;;
56581;SDS011;42463;52.214;21.238;2023-02-01T07:37:20;7.50;;;2.20;;
56581;SDS011;42463;52.214;21.238;2023-02-01T07:39:51;8.20;;;2.30;;
56581;SDS011;42463;52.214;21.238;2023-02-01T07:42:30;14.20;;;3.10;;
56581;SDS011;42463;52.214;21.238;2023-02-01T07:45:14;9.20;;;2.20;;
56581;SDS011;42463;52.214;21.238;2023-02-01T07:47:44;12.10;;;2.60;;
56581;SDS011;42463;52.214;21.238;2023-02-01T07:50:30;12.10;;;2.40;;
56581;SDS011;42463;52.214;21.238;2023-02-01T07:53:14;8.50;;;1.90;;
56581;SDS011;42463;52.214;21.238;2023-02-01T07:55:40;10.80;;;2.80;;
56581;SDS011;42463;52.214;21.238;2023-02-01T07:58:12;2.50;;;1.30;;
56581;SDS011;42463;52.214;21.238;2023-02-01T08:00:48;9.30;;;2.70;;
56581;SDS011;42463;52.214;21.238;2023-02-01T08:03:50;7.30;;;2.10;;
56581;SDS011;42463;52.214;21.238;2023-02-01T08:06:16;11.00;;;2.30;;
56581;SDS011;42463;52.214;21.238;2023-02-01T08:09:02;9.10;;;2.90;;
56581;SDS011;42463;52.214;21.238;2023-02-01T08:11:48;12.20;;;2.80;;
56581;SDS011;42463;52.214;21.238;2023-02-01T08:14:13;6.80;;;2.50;;
56581;SDS011;42463;52.214;21.238;2023-02-01T08:16:38;6.20;;;2.00;;
56581;SDS011;42463;52.214;21.238;2023-02-01T08:19:05;4.40;;;2.00;;
56581;SDS011;42463;52.214;21.238;2023-02-01T08:21:30;12.40;;;2.70;;
56581;SDS011;42463;52.214;21.238;2023-02-01T08:23:59;8.90;;;2.40;;
56581;SDS011;42463;52.214;21.238;2023-02-01T08:26:24;6.70;;;1.70;;
56581;SDS011;42463;52.214;21.238;2023-02-01T08:28:50;13.50;;;2.20;;
56581;SDS011;42463;52.214;21.238;2023-02-01T08:31:17;11.10;;;3.20;;
56581;SDS011;42463;52.214;21.238;2023-02-01T08:33:47;15.60;;;2.80;;
56581;SDS011;42463;52.214;21.238;2023-02-01T08:36:22;11.30;;;2.80;;
56581;SDS011;42463;52.214;21.238;2023-02-01T08:39:02;9.50;;;2.80;;
56581;SDS011;42463;52.214;21.238;2023-02-01T08:41:31;5.90;;;2.50;;
56581;SDS011;42463;52.214;21.238;2023-02-01T08:44:00;8.00;;;2.60;;
56581;SDS011;42463;52.214;21.238;2023-02-01T08:46:45;8.70;;;2.40;;
56581;SDS011;42463;52.214;21.238;2023-02-01T08:49:10;10.40;;;2.70;;
56581;SDS011;42463;52.214;21.238;2023-02-01T08:51:35;8.50;;;2.40;;
56581;SDS011;42463;52.214;21.238;2023-02-01T08:54:00;6.10;;;2.10;;
56581;SDS011;42463;52.214;21.238;2023-02-01T08:56:25;8.00;;;3.50;;
56581;SDS011;42463;52.214;21.238;2023-02-01T08:58:50;9.00;;;2.40;;
56581;SDS011;42463;52.214;21.238;2023-02-01T09:01:15;6.80;;;2.20;;
56581;SDS011;42463;52.214;21.238;2023-02-01T09:03:43;13.10;;;3.00;;
56581;SDS011;42463;52.214;21.238;2023-02-01T09:06:08;11.90;;;2.70;;
56581;SDS011;42463;52.214;21.238;2023-02-01T09:08:45;8.60;;;2.90;;
56581;SDS011;42463;52.214;21.238;2023-02-01T09:11:18;8.60;;;3.40;;
56581;SDS011;42463;52.214;21.238;2023-02-01T09:13:43;7.90;;;2.60;;
56581;SDS011;42463;52.214;21.238;2023-02-01T09:16:08;9.30;;;2.70;;
56581;SDS011;42463;52.214;21.238;2023-02-01T09:18:33;7.80;;;2.50;;
56581;SDS011;42463;52.214;21.238;2023-02-01T09:21:03;9.00;;;2.60;;
56581;SDS011;42463;52.214;21.238;2023-02-01T09:23:31;9.90;;;2.80;;
56581;SDS011;42463;52.214;21.238;2023-02-01T09:25:59;14.60;;;3.60;;
56581;SDS011;42463;52.214;21.238;2023-02-01T09:28:25;13.30;;;3.20;;
56581;SDS011;42463;52.214;21.238;2023-02-01T09:30:54;10.00;;;2.70;;
56581;SDS011;42463;52.214;21.238;2023-02-01T09:33:29;12.30;;;2.50;;
56581;SDS011;42463;52.214;21.238;2023-02-01T09:35:56;9.80;;;2.50;;
56581;SDS011;42463;52.214;21.238;2023-02-01T09:38:22;9.90;;;2.40;;
56581;SDS011;42463;52.214;21.238;2023-02-01T09:40:49;10.40;;;2.50;;
56581;SDS011;42463;52.214;21.238;2023-02-01T09:43:17;6.80;;;2.40;;
56581;SDS011;42463;52.214;21.238;2023-02-01T09:45:53;8.50;;;2.60;;
56581;SDS011;42463;52.214;21.238;2023-02-01T09:48:31;8.50;;;2.60;;
56581;SDS011;42463;52.214;21.238;2023-02-01T09:51:11;9.50;;;2.10;;
56581;SDS011;42463;52.214;21.238;2023-02-01T09:53:46;12.30;;;2.80;;
56581;SDS011;42463;52.214;21.238;2023-02-01T09:56:23;7.00;;;3.20;;
56581;SDS011;42463;52.214;21.238;2023-02-01T09:58:54;12.30;;;3.10;;
56581;SDS011;42463;52.214;21.238;2023-02-01T10:01:30;11.90;;;3.20;;
56581;SDS011;42463;52.214;21.238;2023-02-01T10:04:02;6.40;;;1.90;;
56581;SDS011;42463;52.214;21.238;2023-02-01T10:06:35;8.60;;;2.40;;
56581;SDS011;42463;52.214;21.238;2023-02-01T10:09:16;6.70;;;3.30;;
56581;SDS011;42463;52.214;21.238;2023-02-01T10:11:56;8.90;;;2.30;;
56581;SDS011;42463;52.214;21.238;2023-02-01T10:14:55;12.10;;;3.20;;
56581;SDS011;42463;52.214;21.238;2023-02-01T10:17:45;10.90;;;3.00;;
56581;SDS011;42463;52.214;21.238;2023-02-01T10:20:21;12.60;;;2.20;;
56581;SDS011;42463;52.214;21.238;2023-02-01T10:23:06;14.70;;;3.90;;
56581;SDS011;42463;52.214;21.238;2023-02-01T10:25:47;8.70;;;2.50;;
56581;SDS011;42463;52.214;21.238;2023-02-01T10:28:36;8.30;;;2.80;;
56581;SDS011;42463;52.214;21.238;2023-02-01T10:31:06;8.00;;;2.50;;
56581;SDS011;42463;52.214;21.238;2023-02-01T10:33:47;12.70;;;3.20;;
56581;SDS011;42463;52.214;21.238;2023-02-01T10:36:31;9.00;;;2.80;;
56581;SDS011;42463;52.214;21.238;2023-02-01T10:39:11;7.40;;;2.30;;
56581;SDS011;42463;52.214;21.238;2023-02-01T10:41:39;9.40;;;2.50;;
56581;SDS011;42463;52.214;21.238;2023-02-01T10:44:16;11.70;;;2.90;;
56581;SDS011;42463;52.214;21.238;2023-02-01T10:46:44;5.40;;;2.20;;
56581;SDS011;42463;52.214;21.238;2023-02-01T10:49:11;7.20;;;2.60;;
56581;SDS011;42463;52.214;21.238;2023-02-01T10:51:42;9.00;;;2.60;;
56581;SDS011;42463;52.214;21.238;2023-02-01T10:54:10;9.20;;;2.10;;
56581;SDS011;42463;52.214;21.238;2023-02-01T10:56:48;9.70;;;2.50;;
56581;SDS011;42463;52.214;21.238;2023-02-01T10:59:16;12.50;;;2.90;;
56581;SDS011;42463;52.214;21.238;2023-02-01T11:01:43;9.30;;;2.60;;
56581;SDS011;42463;52.214;21.238;2023-02-01T11:04:20;7.90;;;2.60;;
56581;SDS011;42463;52.214;21.238;2023-02-01T11:06:49;7.70;;;3.10;;
56581;SDS011;42463;52.214;21.238;2023-02-01T11:09:27;9.40;;;3.30;;
56581;SDS011;42463;52.214;21.238;2023-02-01T11:12:02;10.20;;;2.40;;
56581;SDS011;42463;52.214;21.238;2023-02-01T11:14:39;8.50;;;2.70;;
56581;SDS011;42463;52.214;21.238;2023-02-01T11:17:23;7.10;;;2.80;;
56581;SDS011;42463;52.214;21.238;2023-02-01T11:20:06;9.70;;;3.00;;
56581;SDS011;42463;52.214;21.238;2023-02-01T11:22:52;7.90;;;2.80;;
56581;SDS011;42463;52.214;21.238;2023-02-01T11:25:38;7.90;;;2.20;;
56581;SDS011;42463;52.214;21.238;2023-02-01T11:28:10;8.50;;;3.00;;
56581;SDS011;42463;52.214;21.238;2023-02-01T11:30:51;10.90;;;3.00;;
56581;SDS011;42463;52.214;21.238;2023-02-01T11:33:33;6.50;;;2.80;;
56581;SDS011;42463;52.214;21.238;2023-02-01T11:36:22;11.70;;;3.60;;
56581;SDS011;42463;52.214;21.238;2023-02-01T11:39:16;14.40;;;3.60;;
56581;SDS011;42463;52.214;21.238;2023-02-01T11:41:58;12.60;;;3.00;;
56581;SDS011;42463;52.214;21.238;2023-02-01T11:44:34;8.40;;;2.60;;
56581;SDS011;42463;52.214;21.238;2023-02-01T11:49:52;11.20;;;3.60;;
56581;SDS011;42463;52.214;21.238;2023-02-01T11:52:44;12.00;;;3.40;;
56581;SDS011;42463;52.214;21.238;2023-02-01T11:55:31;8.90;;;2.50;;
56581;SDS011;42463;52.214;21.238;2023-02-01T11:58:11;8.70;;;2.30;;
56581;SDS011;42463;52.214;21.238;2023-02-01T12:00:52;7.60;;;2.50;;
56581;SDS011;42463;52.214;21.238;2023-02-01T12:04:03;9.30;;;2.50;;
56581;SDS011;42463;52.214;21.238;2023-02-01T12:09:24;9.30;;;2.90;;
56581;SDS011;42463;52.214;21.238;2023-02-01T12:12:04;13.50;;;3.80;;
56581;SDS011;42463;52.214;21.238;2023-02-01T12:14:47;7.30;;;3.60;;
56581;SDS011;42463;52.214;21.238;2023-02-01T12:17:41;7.10;;;2.80;;
56581;SDS011;42463;52.214;21.238;2023-02-01T12:20:18;10.80;;;3.50;;
56581;SDS011;42463;52.214;21.238;2023-02-01T12:22:53;8.40;;;2.50;;
56581;SDS011;42463;52.214;21.238;2023-02-01T12:25:46;9.80;;;3.70;;
56581;SDS011;42463;52.214;21.238;2023-02-01T12:28:31;11.10;;;3.40;;
56581;SDS011;42463;52.214;21.238;2023-02-01T12:33:58;8.70;;;3.20;;
56581;SDS011;42463;52.214;21.238;2023-02-01T12:36:39;13.20;;;3.40;;
56581;SDS011;42463;52.214;21.238;2023-02-01T12:39:14;9.70;;;3.50;;
56581;SDS011;42463;52.214;21.238;2023-02-01T12:41:47;7.40;;;2.40;;
56581;SDS011;42463;52.214;21.238;2023-02-01T12:44:25;6.40;;;2.70;;
56581;SDS011;42463;52.214;21.238;2023-02-01T12:46:56;9.30;;;2.70;;
56581;SDS011;42463;52.214;21.238;2023-02-01T12:49:30;12.90;;;3.10;;
56581;SDS011;42463;52.214;21.238;2023-02-01T12:54:32;13.40;;;3.20;;
56581;SDS011;42463;52.214;21.238;2023-02-01T12:57:13;11.30;;;3.50;;
56581;SDS011;42463;52.214;21.238;2023-02-01T12:59:42;10.40;;;3.90;;
56581;SDS011;42463;52.214;21.238;2023-02-01T13:02:14;5.30;;;2.50;;
56581;SDS011;42463;52.214;21.238;2023-02-01T13:04:49;9.80;;;3.60;;
56581;SDS011;42463;52.214;21.238;2023-02-01T13:07:24;8.70;;;2.80;;
56581;SDS011;42463;52.214;21.238;2023-02-01T13:09:55;13.70;;;3.90;;
56581;SDS011;42463;52.214;21.238;2023-02-01T13:12:24;10.90;;;4.60;;
56581;SDS011;42463;52.214;21.238;2023-02-01T13:14:52;6.10;;;2.90;;
56581;SDS011;42463;52.214;21.238;2023-02-01T13:17:22;11.10;;;3.60;;
56581;SDS011;42463;52.214;21.238;2023-02-01T13:19:51;10.10;;;3.20;;
56581;SDS011;42463;52.214;21.238;2023-02-01T13:22:21;11.80;;;4.00;;
56581;SDS011;42463;52.214;21.238;2023-02-01T13:24:52;13.10;;;3.90;;
56581;SDS011;42463;52.214;21.238;2023-02-01T13:27:19;9.70;;;3.00;;
56581;SDS011;42463;52.214;21.238;2023-02-01T13:29:47;13.80;;;4.20;;
56581;SDS011;42463;52.214;21.238;2023-02-01T13:32:23;13.20;;;3.60;;
56581;SDS011;42463;52.214;21.238;2023-02-01T13:35:18;10.50;;;3.80;;
56581;SDS011;42463;52.214;21.238;2023-02-01T13:37:59;6.10;;;2.70;;
56581;SDS011;42463;52.214;21.238;2023-02-01T13:40:40;13.80;;;4.40;;
56581;SDS011;42463;52.214;21.238;2023-02-01T13:43:10;10.70;;;4.10;;
56581;SDS011;42463;52.214;21.238;2023-02-01T13:45:54;13.60;;;3.50;;
56581;SDS011;42463;52.214;21.238;2023-02-01T13:48:38;14.60;;;4.10;;
56581;SDS011;42463;52.214;21.238;2023-02-01T13:51:09;19.30;;;4.50;;
56581;SDS011;42463;52.214;21.238;2023-02-01T13:53:47;10.00;;;3.40;;
56581;SDS011;42463;52.214;21.238;2023-02-01T13:56:26;11.00;;;3.30;;
56581;SDS011;42463;52.214;21.238;2023-02-01T13:59:02;8.00;;;3.60;;
56581;SDS011;42463;52.214;21.238;2023-02-01T14:02:47;5.50;;;3.10;;
56581;SDS011;42463;52.214;21.238;2023-02-01T14:08:39;7.00;;;2.50;;
56581;SDS011;42463;52.214;21.238;2023-02-01T14:11:34;6.10;;;3.20;;
56581;SDS011;42463;52.214;21.238;2023-02-01T14:23:10;10.90;;;3.00;;
56581;SDS011;42463;52.214;21.238;2023-02-01T14:25:38;10.20;;;3.00;;
56581;SDS011;42463;52.214;21.238;2023-02-01T14:28:25;7.50;;;3.20;;
56581;SDS011;42463;52.214;21.238;2023-02-01T14:30:53;10.20;;;2.90;;
56581;SDS011;42463;52.214;21.238;2023-02-01T14:33:33;6.60;;;2.80;;
56581;SDS011;42463;52.214;21.238;2023-02-01T14:36:06;6.50;;;3.50;;
56581;SDS011;42463;52.214;21.238;2023-02-01T14:38:49;10.50;;;3.70;;
56581;SDS011;42463;52.214;21.238;2023-02-01T14:41:34;7.70;;;3.20;;
56581;SDS011;42463;52.214;21.238;2023-02-01T14:53:15;5.10;;;2.70;;
56581;SDS011;42463;52.214;21.238;2023-02-01T14:55:48;8.30;;;3.50;;
56581;SDS011;42463;52.214;21.238;2023-02-01T14:58:18;11.70;;;3.60;;
56581;SDS011;42463;52.214;21.238;2023-02-01T15:00:52;5.80;;;3.20;;
56581;SDS011;42463;52.214;21.238;2023-02-01T15:03:25;6.50;;;3.20;;
56581;SDS011;42463;52.214;21.238;2023-02-01T15:06:01;10.40;;;4.10;;
56581;SDS011;42463;52.214;21.238;2023-02-01T15:08:30;8.10;;;3.40;;
56581;SDS011;42463;52.214;21.238;2023-02-01T15:11:00;10.00;;;3.60;;
56581;SDS011;42463;52.214;21.238;2023-02-01T15:13:31;8.90;;;3.10;;
56581;SDS011;42463;52.214;21.238;2023-02-01T15:16:04;9.00;;;3.60;;
56581;SDS011;42463;52.214;21.238;2023-02-01T15:18:32;6.00;;;3.10;;
56581;SDS011;42463;52.214;21.238;2023-02-01T15:20:58;8.80;;;3.70;;
56581;SDS011;42463;52.214;21.238;2023-02-01T15:23:25;6.20;;;3.30;;
56581;SDS011;42463;52.214;21.238;2023-02-01T15:25:51;7.50;;;2.90;;
56581;SDS011;42463;52.214;21.238;2023-02-01T15:28:17;8.60;;;2.90;;
56581;SDS011;42463;52.214;21.238;2023-02-01T15:30:51;10.90;;;3.90;;
56581;SDS011;42463;52.214;21.238;2023-02-01T15:33:18;10.50;;;3.60;;
56581;SDS011;42463;52.214;21.238;2023-02-01T15:35:44;5.90;;;2.50;;
56581;SDS011;42463;52.214;21.238;2023-02-01T15:38:20;7.70;;;3.90;;
56581;SDS011;42463;52.214;21.238;2023-02-01T15:41:06;7.10;;;3.10;;
56581;SDS011;42463;52.214;21.238;2023-02-01T15:43:33;7.00;;;3.60;;
56581;SDS011;42463;52.214;21.238;2023-02-01T15:46:21;5.80;;;3.60;;
56581;SDS011;42463;52.214;21.238;2023-02-01T15:49:17;5.60;;;2.90;;
56581;SDS011;42463;52.214;21.238;2023-02-01T15:51:49;6.70;;;3.20;;
56581;SDS011;42463;52.214;21.238;2023-02-01T15:54:27;6.60;;;3.60;;
56581;SDS011;42463;52.214;21.238;2023-02-01T15:57:14;5.70;;;3.40;;
56581;SDS011;42463;52.214;21.238;2023-02-01T15:59:55;6.30;;;3.40;;
56581;SDS011;42463;52.214;21.238;2023-02-01T16:02:26;6.40;;;3.30;;
56581;SDS011;42463;52.214;21.238;2023-02-01T16:05:31;7.30;;;3.40;;
56581;SDS011;42463;52.214;21.238;2023-02-01T16:08:06;5.90;;;3.30;;
56581;SDS011;42463;52.214;21.238;2023-02-01T16:10:59;4.00;;;2.70;;
56581;SDS011;42463;52.214;21.238;2023-02-01T16:13:46;8.60;;;3.50;;